Time;durP1;ratioP1;P1;durP2;ratioP2;P2;SDS_P1;SDS_P2;PMS_P1;PMS_P2;Temp;Humidity;BMP_temperature;BMP_pressure;BME280_temperature;BME280_humidity;BME280_pressure;Samples;Min_cycle;Max_cycle;Signal;HPM_P1;HPM_P2
2023/08/02 00:01:25;;;;;;;7.53;2.80;;;;;;;17.74;70.31;100013.25;5071667;28;20043;-76
2023/08/02 00:03:50;;;;;;;11.25;2.72;;;;;;;17.71;70.43;100022.31;5064830;28;20103;-77
2023/08/02 00:06:15;;;;;;;8.38;3.03;;;;;;;17.67;70.51;100013.69;5062578;28;20033;-76
2023/08/02 00:08:41;;;;;;;7.93;2.83;;;;;;;17.65;70.47;100005.63;5051319;28;20187;-77
2023/08/02 00:11:15;;;;;;;6.60;2.80;;;;;;;17.66;70.69;100018.50;5052019;28;20038;-76
2023/08/02 00:13:40;;;;;;;5.88;3.00;;;;;;;17.70;70.62;100023.47;5051922;28;20063;-76
2023/08/02 00:16:05;;;;;;;5.35;2.67;;;;;;;17.63;70.62;100016.31;5051059;28;20085;-76
2023/08/02 00:18:31;;;;;;;9.25;2.70;;;;;;;17.59;70.71;100031.31;5052081;28;20033;-76
2023/08/02 00:20:56;;;;;;;7.45;2.78;;;;;;;17.59;70.90;100020.09;5052202;28;20057;-76
2023/08/02 00:23:21;;;;;;;6.68;2.72;;;;;;;17.61;70.74;100018.63;5055556;28;20391;-77
2023/08/02 00:25:47;;;;;;;9.07;3.00;;;;;;;17.54;70.93;100018.25;5071780;28;20029;-76
2023/08/02 00:28:12;;;;;;;6.38;2.97;;;;;;;17.57;70.68;100019.59;5072008;28;20044;-76
2023/08/02 00:30:45;;;;;;;6.97;2.40;;;;;;;17.57;70.98;100009.19;5070970;28;20029;-76
2023/08/02 00:33:11;;;;;;;6.07;2.53;;;;;;;17.57;71.04;100022.41;5071694;28;20020;-77
2023/08/02 00:35:41;;;;;;;5.40;2.65;;;;;;;17.58;70.97;100021.25;5070818;28;20491;-77
2023/08/02 00:38:06;;;;;;;7.13;2.50;;;;;;;17.57;71.06;100016.78;5071899;28;20029;-76
2023/08/02 00:40:31;;;;;;;6.85;3.10;;;;;;;17.56;71.00;100006.69;5062146;28;20457;-76
2023/08/02 00:42:57;;;;;;;6.20;2.75;;;;;;;17.50;71.19;100000.41;5070618;28;20119;-77
2023/08/02 00:45:22;;;;;;;4.53;2.47;;;;;;;17.50;71.21;99997.59;5071523;28;20021;-77
2023/08/02 00:47:47;;;;;;;7.93;2.80;;;;;;;17.51;71.34;99978.78;5071628;28;20016;-77
2023/08/02 00:50:13;;;;;;;8.23;3.05;;;;;;;17.57;71.47;99985.94;5070847;28;20027;-76
2023/08/02 00:52:38;;;;;;;7.57;2.60;;;;;;;17.52;71.35;99972.00;5071626;28;20035;-76
2023/08/02 00:55:04;;;;;;;6.80;2.50;;;;;;;17.52;71.45;99963.59;5071466;28;20563;-76
2023/08/02 00:57:29;;;;;;;8.48;2.72;;;;;;;17.47;71.45;99958.13;5066704;28;20025;-76
2023/08/02 00:59:54;;;;;;;6.22;2.75;;;;;;;17.46;71.74;99960.09;5071814;28;20062;-76
2023/08/02 01:02:20;;;;;;;8.75;2.63;;;;;;;17.47;71.80;99963.72;5071549;28;20048;-76
2023/08/02 01:04:46;;;;;;;6.35;2.60;;;;;;;17.47;71.97;99967.38;5070729;28;20020;-76
2023/08/02 01:07:32;;;;;;;7.32;2.53;;;;;;;17.55;71.71;99963.78;5071262;28;20434;-76
2023/08/02 01:10:39;;;;;;;8.55;2.92;;;;;;;17.60;71.51;99965.63;5071430;28;20040;-75
2023/08/02 01:13:06;;;;;;;5.38;2.45;;;;;;;17.56;71.72;99964.59;4989931;28;20037;-76
2023/08/02 01:15:34;;;;;;;5.35;2.60;;;;;;;17.58;71.90;99968.75;5042098;28;20084;-76
2023/08/02 01:18:00;;;;;;;7.55;2.85;;;;;;;17.59;71.92;99969.59;5050604;28;20605;-76
2023/08/02 01:20:25;;;;;;;9.00;3.20;;;;;;;17.58;71.92;99970.75;5057719;28;20396;-76
2023/08/02 01:22:50;;;;;;;10.90;3.30;;;;;;;17.48;72.22;99962.56;5071326;28;20020;-76
2023/08/02 01:25:16;;;;;;;9.00;2.63;;;;;;;17.44;72.31;99962.38;5070514;28;20028;-76
2023/08/02 01:27:50;;;;;;;7.70;2.95;;;;;;;17.51;72.37;99957.16;5071374;28;20121;-76
2023/08/02 01:30:19;;;;;;;5.10;3.28;;;;;;;17.52;72.44;99949.56;5071061;28;20051;-76
2023/08/02 01:32:45;;;;;;;9.52;2.92;;;;;;;17.43;72.70;99955.13;5070798;28;20406;-76
2023/08/02 01:35:11;;;;;;;7.05;2.80;;;;;;;17.43;72.62;99944.72;5071026;28;20367;-75
2023/08/02 01:37:36;;;;;;;5.82;2.67;;;;;;;17.48;72.59;99951.34;5067192;28;20032;-76
2023/08/02 01:40:03;;;;;;;5.15;2.70;;;;;;;17.52;72.54;99949.56;5070248;28;20028;-75
2023/08/02 01:42:28;;;;;;;5.15;2.70;;;;;;;17.54;72.62;99944.47;5071118;28;20036;-76
2023/08/02 01:44:53;;;;;;;7.43;2.80;;;;;;;17.49;72.88;99930.56;5070875;28;20027;-76
2023/08/02 01:47:19;;;;;;;7.30;3.10;;;;;;;17.48;72.62;99926.09;5070276;28;20024;-76
2023/08/02 01:49:44;;;;;;;8.43;3.10;;;;;;;17.46;72.61;99925.63;5071114;28;20055;-77
2023/08/02 01:52:09;;;;;;;8.73;3.10;;;;;;;17.50;72.76;99924.66;5071167;28;20029;-76
2023/08/02 01:54:35;;;;;;;8.68;3.20;;;;;;;17.50;72.77;99915.41;5061563;28;20064;-76
2023/08/02 01:57:00;;;;;;;7.82;3.15;;;;;;;17.38;73.17;99916.00;5050649;28;20104;-77
2023/08/02 01:59:26;;;;;;;8.60;2.92;;;;;;;17.42;73.17;99912.22;5050697;28;20128;-76
2023/08/02 02:01:51;;;;;;;7.50;3.47;;;;;;;17.42;72.88;99906.63;5050080;28;20082;-76
2023/08/02 02:04:16;;;;;;;6.25;3.00;;;;;;;17.37;72.91;99900.31;5050423;28;20481;-76
2023/08/02 02:06:42;;;;;;;7.20;3.13;;;;;;;17.42;73.02;99891.78;5050621;28;20041;-77
2023/08/02 02:09:07;;;;;;;6.75;2.85;;;;;;;17.35;73.11;99892.22;5050819;28;20045;-76
2023/08/02 02:11:32;;;;;;;6.55;3.08;;;;;;;17.33;73.25;99869.28;5069047;28;20100;-76
2023/08/02 02:13:57;;;;;;;6.53;3.17;;;;;;;17.38;73.11;99873.94;5073595;28;20028;-76
2023/08/02 02:16:23;;;;;;;9.32;2.97;;;;;;;17.34;73.49;99882.16;5074215;28;20040;-76
2023/08/02 02:18:48;;;;;;;7.05;2.60;;;;;;;17.38;73.27;99866.34;5074554;28;20028;-76
2023/08/02 02:21:13;;;;;;;7.32;2.75;;;;;;;17.41;73.29;99854.47;5073373;28;20457;-76
2023/08/02 02:23:39;;;;;;;5.00;2.88;;;;;;;17.39;73.41;99851.16;5074512;28;20039;-76
2023/08/02 02:26:04;;;;;;;4.53;2.78;;;;;;;17.40;73.38;99835.16;5074287;28;20028;-76
2023/08/02 02:28:29;;;;;;;6.20;2.92;;;;;;;17.39;73.44;99833.50;5064380;28;20028;-77
2023/08/02 02:30:56;;;;;;;7.50;2.92;;;;;;;17.40;73.35;99813.53;5070038;28;20070;-76
2023/08/02 02:33:22;;;;;;;7.55;2.88;;;;;;;17.35;73.68;99807.25;5073943;28;20043;-76
2023/08/02 02:35:47;;;;;;;9.38;3.58;;;;;;;17.33;73.56;99815.16;5073564;28;20029;-75
2023/08/02 02:38:12;;;;;;;8.75;3.00;;;;;;;17.38;73.51;99817.81;5074177;28;20501;-75
2023/08/02 02:40:38;;;;;;;5.80;2.80;;;;;;;17.38;73.57;99817.81;5073695;28;20035;-76
2023/08/02 02:43:03;;;;;;;8.75;2.95;;;;;;;17.37;73.72;99818.97;5073230;28;20027;-76
2023/08/02 02:45:28;;;;;;;8.50;3.55;;;;;;;17.43;73.50;99810.09;5074426;28;20024;-75
2023/08/02 02:47:54;;;;;;;8.27;3.33;;;;;;;17.38;73.61;99810.25;5067249;28;20035;-76
2023/08/02 02:50:20;;;;;;;6.85;3.17;;;;;;;17.33;73.86;99806.72;5055830;28;20469;-76
2023/08/02 02:52:45;;;;;;;6.28;3.10;;;;;;;17.39;73.64;99814.69;5053541;28;20380;-76
2023/08/02 02:55:10;;;;;;;6.38;3.22;;;;;;;17.38;73.40;99820.63;5053583;28;20087;-76
2023/08/02 02:57:36;;;;;;;7.65;3.45;;;;;;;17.41;73.38;99817.19;5053020;28;20041;-76
2023/08/02 03:00:01;;;;;;;7.22;3.30;;;;;;;17.38;73.21;99806.59;5053057;28;20024;-76
2023/08/02 03:02:26;;;;;;;5.30;2.92;;;;;;;17.36;73.32;99801.31;5053286;28;20042;-76
2023/08/02 03:04:51;;;;;;;6.18;2.80;;;;;;;17.34;73.47;99794.38;5052981;28;20017;-76
2023/08/02 03:07:17;;;;;;;8.73;2.72;;;;;;;17.33;73.62;99789.91;5064249;28;20846;-76
2023/08/02 03:09:42;;;;;;;5.03;3.13;;;;;;;17.27;73.92;99763.16;5061392;28;20427;-76
2023/08/02 03:12:08;;;;;;;7.65;2.90;;;;;;;17.29;73.91;99750.50;5052576;28;20043;-76
2023/08/02 03:14:33;;;;;;;6.90;2.95;;;;;;;17.26;74.28;99742.72;5053324;28;20108;-76
2023/08/02 03:16:59;;;;;;;5.88;2.80;;;;;;;17.31;74.08;99742.56;5060778;28;20115;-76
2023/08/02 03:19:24;;;;;;;5.65;2.88;;;;;;;17.26;74.91;99728.69;5072640;28;20108;-76
2023/08/02 03:21:49;;;;;;;6.28;2.78;;;;;;;17.25;75.32;99734.59;5073047;28;20024;-76
2023/08/02 03:24:15;;;;;;;6.47;2.92;;;;;;;17.22;75.56;99724.06;5072913;28;20020;-76
2023/08/02 03:26:40;;;;;;;5.05;2.80;;;;;;;17.23;75.79;99715.31;5072624;28;20093;-76
2023/08/02 03:29:05;;;;;;;5.05;2.65;;;;;;;17.24;76.14;99707.72;5072964;28;20082;-76
2023/08/02 03:31:30;;;;;;;4.85;3.33;;;;;;;17.24;75.91;99714.16;5072145;28;20052;-76
2023/08/02 03:33:56;;;;;;;6.13;3.17;;;;;;;17.22;76.05;99719.28;5068612;28;20047;-77
2023/08/02 03:36:21;;;;;;;7.00;2.75;;;;;;;17.24;76.20;99722.56;5072624;28;20108;-76
2023/08/02 03:38:46;;;;;;;5.68;3.25;;;;;;;17.21;76.41;99720.41;5072309;28;20023;-76
2023/08/02 03:41:12;;;;;;;5.90;3.53;;;;;;;17.25;76.38;99713.03;5072875;28;20447;-76
2023/08/02 03:43:37;;;;;;;6.40;3.40;;;;;;;17.20;77.03;99704.75;5072181;28;20096;-76
2023/08/02 03:46:02;;;;;;;6.53;3.05;;;;;;;17.20;76.85;99693.53;5071979;28;20048;-77
2023/08/02 03:48:28;;;;;;;6.65;3.15;;;;;;;17.21;77.03;99694.34;5072788;28;20063;-76
2023/08/02 03:50:57;;;;;;;7.05;3.30;;;;;;;17.20;77.21;99684.28;5066499;28;20629;-76
2023/08/02 03:53:25;;;;;;;5.95;3.03;;;;;;;17.16;77.20;99670.09;5072300;28;20031;-76
2023/08/02 03:55:50;;;;;;;5.72;3.13;;;;;;;17.17;77.28;99677.34;5072526;28;20035;-76
2023/08/02 03:58:15;;;;;;;7.05;3.03;;;;;;;17.25;76.90;99672.91;5072565;28;20036;-76
2023/08/02 04:00:41;;;;;;;6.57;3.47;;;;;;;17.26;77.03;99664.19;5071511;28;20124;-76
2023/08/02 04:03:06;;;;;;;7.32;3.17;;;;;;;17.29;77.01;99657.94;5072191;28;20024;-76
2023/08/02 04:05:32;;;;;;;5.15;3.00;;;;;;;17.25;77.00;99651.34;5072331;28;20033;-76
2023/08/02 04:07:57;;;;;;;5.40;3.03;;;;;;;17.24;77.04;99641.25;5068317;28;20024;-76
2023/08/02 04:10:24;;;;;;;7.88;3.40;;;;;;;17.25;76.99;99639.25;5072032;28;20473;-76
2023/08/02 04:12:51;;;;;;;7.90;3.47;;;;;;;17.21;77.10;99636.28;5071933;28;20195;-76
2023/08/02 04:15:16;;;;;;;5.82;3.53;;;;;;;17.20;77.22;99626.22;5071401;28;20040;-76
2023/08/02 04:17:41;;;;;;;6.60;3.58;;;;;;;17.22;77.18;99618.34;5072057;28;20040;-76
2023/08/02 04:20:08;;;;;;;6.65;3.20;;;;;;;17.23;77.20;99613.53;5072074;28;20032;-76
2023/08/02 04:22:34;;;;;;;7.22;3.53;;;;;;;17.17;77.40;99612.84;5071176;28;20060;-76
2023/08/02 04:24:59;;;;;;;6.72;3.58;;;;;;;17.21;77.21;99602.63;5067327;28;20067;-76
2023/08/02 04:27:24;;;;;;;5.22;3.53;;;;;;;17.17;77.47;99596.03;5054339;28;20094;-77
2023/08/02 04:29:50;;;;;;;7.47;3.90;;;;;;;17.16;77.57;99583.19;5051690;28;20444;-76
2023/08/02 04:32:15;;;;;;;10.02;4.07;;;;;;;17.20;77.32;99575.75;5052557;28;20033;-76
2023/08/02 04:34:40;;;;;;;8.88;3.78;;;;;;;17.12;77.64;99576.56;5051392;28;20017;-76
2023/08/02 04:37:06;;;;;;;6.03;3.45;;;;;;;17.20;77.23;99572.13;5052023;28;20040;-76
2023/08/02 04:39:31;;;;;;;5.78;3.10;;;;;;;17.18;77.58;99566.88;5051913;28;20033;-75
2023/08/02 04:42:00;;;;;;;9.63;4.20;;;;;;;17.16;77.78;99564.38;5054011;28;20079;-76
2023/08/02 04:44:26;;;;;;;5.95;3.63;;;;;;;17.19;77.46;99548.88;5052036;28;20427;-75
2023/08/02 04:46:51;;;;;;;8.10;4.20;;;;;;;17.17;77.57;99539.97;5051860;28;20025;-76
2023/08/02 04:49:16;;;;;;;9.23;4.25;;;;;;;17.15;77.78;99525.47;5051110;28;20033;-75
2023/08/02 04:51:42;;;;;;;9.25;3.85;;;;;;;17.14;77.49;99516.22;5051334;28;20036;-76
2023/08/02 04:54:07;;;;;;;7.15;4.25;;;;;;;17.16;77.81;99515.88;5051613;28;20028;-75
2023/08/02 04:56:32;;;;;;;7.72;4.07;;;;;;;17.11;77.97;99507.66;5050114;28;20111;-76
2023/08/02 04:58:58;;;;;;;6.78;3.80;;;;;;;17.15;77.88;99514.25;5068394;28;20024;-76
2023/08/02 05:01:23;;;;;;;6.05;3.75;;;;;;;17.13;78.33;99505.31;5063210;28;20036;-76
2023/08/02 05:03:48;;;;;;;8.23;3.92;;;;;;;17.11;78.38;99505.66;5050336;28;20102;-76
2023/08/02 05:06:13;;;;;;;5.75;3.90;;;;;;;17.06;78.86;99502.22;5051210;28;20032;-76
2023/08/02 05:08:39;;;;;;;5.53;3.70;;;;;;;17.11;78.84;99496.44;5051156;28;20116;-77
2023/08/02 05:11:05;;;;;;;6.45;3.92;;;;;;;17.07;79.43;99492.66;5050746;28;20040;-76
2023/08/02 05:13:31;;;;;;;6.60;4.47;;;;;;;17.05;79.55;99495.75;5065492;28;20035;-76
2023/08/02 05:15:56;;;;;;;9.00;4.32;;;;;;;17.02;80.03;99498.41;5070891;28;20044;-76
2023/08/02 05:18:21;;;;;;;7.63;4.30;;;;;;;17.04;80.01;99482.91;5070621;28;20365;-76
2023/08/02 05:20:47;;;;;;;7.20;3.72;;;;;;;17.05;80.08;99478.94;5067064;28;20471;-76
2023/08/02 05:23:12;;;;;;;6.93;3.95;;;;;;;17.03;80.18;99469.22;5070941;28;20036;-76
2023/08/02 05:25:38;;;;;;;6.97;4.00;;;;;;;16.98;80.48;99467.41;5070699;28;20020;-77
2023/08/02 05:28:04;;;;;;;6.60;3.83;;;;;;;17.01;80.57;99466.75;5071050;28;20032;-77
2023/08/02 05:30:31;;;;;;;6.85;4.57;;;;;;;16.99;80.68;99457.84;5071174;28;20436;-77
2023/08/02 05:32:56;;;;;;;7.45;3.97;;;;;;;16.95;80.95;99450.44;5070629;28;20021;-77
2023/08/02 05:35:25;;;;;;;5.97;3.92;;;;;;;16.98;81.18;99438.53;5071300;28;20495;-77
2023/08/02 05:37:54;;;;;;;8.35;3.70;;;;;;;16.90;81.46;99429.00;5067621;28;20032;-77
2023/08/02 05:40:19;;;;;;;6.30;3.88;;;;;;;16.90;81.44;99409.38;5070607;28;20094;-77
2023/08/02 05:42:45;;;;;;;5.88;3.70;;;;;;;16.97;81.34;99420.06;5071306;28;20056;-77
2023/08/02 05:45:11;;;;;;;5.40;4.03;;;;;;;16.97;81.43;99403.25;5074449;28;20027;-77
2023/08/02 05:47:36;;;;;;;6.53;3.45;;;;;;;16.93;81.34;99403.91;5074501;28;20110;-77
2023/08/02 05:50:02;;;;;;;6.38;3.83;;;;;;;16.92;81.68;99396.66;5071001;28;20148;-77
2023/08/02 05:52:28;;;;;;;5.03;3.70;;;;;;;16.93;82.01;99397.50;5074168;28;20575;-77
2023/08/02 05:54:53;;;;;;;5.57;3.92;;;;;;;16.96;82.00;99385.63;5075043;28;20108;-77
2023/08/02 05:57:18;;;;;;;6.65;4.40;;;;;;;16.93;81.95;99377.88;5074790;28;20348;-77
2023/08/02 05:59:44;;;;;;;4.80;3.80;;;;;;;16.93;82.27;99372.28;5073786;28;20017;-77
2023/08/02 06:02:09;;;;;;;6.03;3.70;;;;;;;16.95;82.16;99355.13;5074737;28;20024;-77
2023/08/02 06:04:36;;;;;;;6.50;3.90;;;;;;;16.94;82.52;99343.09;5074982;28;20036;-77
2023/08/02 06:07:03;;;;;;;3.90;3.05;;;;;;;16.91;82.65;99330.56;5070193;28;20375;-78
2023/08/02 06:09:28;;;;;;;3.75;3.22;;;;;;;16.97;82.61;99324.78;5054249;28;20055;-78
2023/08/02 06:11:53;;;;;;;4.00;2.65;;;;;;;16.99;82.58;99322.50;5054332;28;20048;-78
2023/08/02 06:14:19;;;;;;;4.22;3.17;;;;;;;16.97;82.99;99316.38;5053799;28;20488;-77
2023/08/02 06:16:44;;;;;;;3.92;3.00;;;;;;;16.97;82.73;99310.78;5054248;28;20086;-77
2023/08/02 06:19:09;;;;;;;3.97;2.88;;;;;;;16.97;82.78;99311.59;5054630;28;20045;-77
2023/08/02 06:21:36;;;;;;;3.90;2.88;;;;;;;16.95;82.73;99305.50;5053855;28;20111;-77
2023/08/02 06:24:01;;;;;;;3.05;2.75;;;;;;;16.88;83.46;99294.81;5054370;28;20028;-77
2023/08/02 06:26:28;;;;;;;2.88;2.58;;;;;;;16.95;83.28;99287.88;5073689;28;20033;-77
2023/08/02 06:28:53;;;;;;;2.95;2.63;;;;;;;16.93;83.16;99285.38;5070890;28;20414;-77
2023/08/02 06:31:19;;;;;;;3.97;2.67;;;;;;;16.95;83.48;99268.25;5071890;28;20032;-78
2023/08/02 06:33:44;;;;;;;3.67;2.97;;;;;;;16.96;83.76;99265.09;5075720;28;20021;-77
2023/08/02 06:36:10;;;;;;;3.20;2.58;;;;;;;16.98;83.60;99257.19;5074244;28;20036;-77
2023/08/02 06:38:35;;;;;;;6.00;2.80;;;;;;;17.00;83.76;99256.84;5074045;28;20132;-77
2023/08/02 06:41:02;;;;;;;4.82;2.42;;;;;;;16.96;84.10;99250.28;5073784;28;20043;-77
2023/08/02 06:43:27;;;;;;;3.33;2.90;;;;;;;16.99;83.81;99239.22;5073161;28;20434;-77
2023/08/02 06:45:53;;;;;;;3.90;2.60;;;;;;;16.95;84.12;99229.84;5074176;28;20025;-77
2023/08/02 06:48:19;;;;;;;2.72;2.42;;;;;;;16.99;84.10;99225.22;5073114;28;20032;-77
2023/08/02 06:50:45;;;;;;;2.80;1.85;;;;;;;16.98;83.77;99229.19;5068391;28;20356;-77
2023/08/02 06:53:10;;;;;;;3.08;2.20;;;;;;;16.96;83.95;99209.06;5073196;28;20035;-77
2023/08/02 06:55:36;;;;;;;2.20;2.00;;;;;;;16.95;84.01;99209.41;5072328;28;20498;-77
2023/08/02 06:58:01;;;;;;;3.10;2.22;;;;;;;16.90;84.39;99196.41;5073876;28;20039;-77
2023/08/02 07:00:29;;;;;;;2.65;2.17;;;;;;;16.89;84.68;99189.13;5073500;28;20049;-77
2023/08/02 07:02:58;;;;;;;2.53;2.15;;;;;;;16.87;84.44;99180.25;5072874;28;20044;-77
2023/08/02 07:05:26;;;;;;;2.20;1.83;;;;;;;16.88;84.52;99173.47;5073659;28;20104;-77
2023/08/02 07:07:52;;;;;;;2.53;2.05;;;;;;;16.87;84.76;99163.44;5070567;28;20033;-78
2023/08/02 07:10:17;;;;;;;2.22;2.03;;;;;;;16.87;84.55;99161.44;5072353;28;20024;-77
2023/08/02 07:12:42;;;;;;;2.97;2.03;;;;;;;16.89;85.01;99153.50;5073282;28;20033;-77
2023/08/02 07:15:08;;;;;;;3.10;2.00;;;;;;;16.94;84.62;99149.72;5073339;28;20044;-77
2023/08/02 07:17:33;;;;;;;1.85;1.75;;;;;;;16.95;84.90;99158.94;5072643;28;20021;-77
2023/08/02 07:19:59;;;;;;;2.45;1.90;;;;;;;16.94;85.18;99152.53;5069780;28;20025;-77
2023/08/02 07:22:24;;;;;;;5.47;2.28;;;;;;;16.99;84.98;99157.13;5072536;28;20036;-77
2023/08/02 07:24:49;;;;;;;2.35;1.75;;;;;;;16.98;85.21;99142.28;5072400;28;20039;-77
2023/08/02 07:27:15;;;;;;;2.58;2.00;;;;;;;16.92;85.48;99147.25;5073176;28;20020;-77
2023/08/02 07:29:40;;;;;;;4.82;2.58;;;;;;;16.93;85.73;99143.28;5070103;28;20020;-77
2023/08/02 07:32:06;;;;;;;3.35;2.28;;;;;;;16.89;86.30;99145.09;5071677;28;20025;-78
2023/08/02 07:34:33;;;;;;;1.80;1.65;;;;;;;16.90;86.50;99129.97;5073030;28;20524;-77
2023/08/02 07:36:59;;;;;;;3.38;2.20;;;;;;;16.89;86.69;99133.09;5073123;28;20184;-77
2023/08/02 07:39:24;;;;;;;2.40;2.00;;;;;;;16.89;86.60;99127.47;5072117;28;20118;-77
2023/08/02 07:41:49;;;;;;;2.53;1.95;;;;;;;16.91;86.83;99131.59;5072866;28;20040;-78
2023/08/02 07:44:16;;;;;;;3.10;1.90;;;;;;;16.92;87.29;99110.81;5073152;28;20028;-77
2023/08/02 07:46:41;;;;;;;2.85;2.05;;;;;;;16.88;87.86;99109.84;5065811;28;20564;-77
2023/08/02 07:49:07;;;;;;;3.42;2.10;;;;;;;16.93;87.79;99106.03;5053050;28;20115;-77
2023/08/02 07:51:32;;;;;;;2.15;1.95;;;;;;;16.97;87.92;99103.38;5052166;28;20802;-77
2023/08/02 07:53:57;;;;;;;3.33;2.00;;;;;;;16.98;88.03;99094.63;5052579;28;20076;-77
2023/08/02 07:56:23;;;;;;;3.05;2.45;;;;;;;16.99;88.56;99096.28;5052159;28;20032;-78
2023/08/02 07:58:48;;;;;;;2.15;1.98;;;;;;;17.04;88.42;99090.47;5051787;28;20025;-78
2023/08/02 08:01:13;;;;;;;2.45;2.25;;;;;;;17.08;88.52;99076.59;5052550;28;20120;-78
2023/08/02 08:03:39;;;;;;;3.20;2.00;;;;;;;17.09;88.25;99076.25;5053371;28;20644;-78
2023/08/02 08:06:15;;;;;;;2.38;2.10;;;;;;;17.09;89.05;99075.44;5056174;28;20033;-77
2023/08/02 08:08:42;;;;;;;1.73;1.63;;;;;;;17.08;89.16;99082.19;5051709;28;20370;-77
2023/08/02 08:11:07;;;;;;;3.40;1.90;;;;;;;17.09;89.53;99064.22;5052296;28;20053;-78
2023/08/02 08:13:33;;;;;;;2.40;1.95;;;;;;;17.06;90.14;99065.72;5051585;28;20059;-77
2023/08/02 08:16:00;;;;;;;2.47;1.80;;;;;;;17.11;89.55;99067.50;5051999;28;20587;-77
2023/08/02 08:18:25;;;;;;;1.65;1.30;;;;;;;17.12;89.57;99071.94;5052223;28;20054;-77
2023/08/02 08:20:51;;;;;;;2.33;1.60;;;;;;;17.12;89.78;99058.75;5053825;28;20120;-77
2023/08/02 08:23:16;;;;;;;1.98;1.58;;;;;;;17.14;89.84;99067.66;5055294;28;20033;-77
2023/08/02 08:25:41;;;;;;;1.70;1.60;;;;;;;17.15;90.26;99048.84;5052192;28;20430;-77
2023/08/02 08:28:07;;;;;;;2.03;1.23;;;;;;;17.17;90.30;99038.94;5051405;28;20033;-77
2023/08/02 08:30:32;;;;;;;1.92;1.50;;;;;;;17.23;90.40;99035.94;5051619;28;20060;-77
2023/08/02 08:32:57;;;;;;;1.23;1.13;;;;;;;17.25;90.56;99048.47;5051783;28;20029;-77
2023/08/02 08:35:23;;;;;;;1.65;1.20;;;;;;;17.24;91.01;99060.00;5051003;28;20029;-77
2023/08/02 08:37:51;;;;;;;1.20;0.90;;;;;;;17.29;91.28;99057.81;5055297;28;20024;-77
2023/08/02 08:40:17;;;;;;;1.30;1.20;;;;;;;17.31;91.37;99049.88;5072396;28;20048;-77
2023/08/02 08:42:54;;;;;;;1.30;1.20;;;;;;;17.34;91.52;99049.19;5071043;28;20106;-78
2023/08/02 08:45:21;;;;;;;3.33;1.70;;;;;;;17.37;92.08;99048.53;5071715;28;20048;-77
2023/08/02 08:47:47;;;;;;;2.90;1.55;;;;;;;17.39;92.96;99048.97;5070981;28;20059;-77
2023/08/02 08:50:13;;;;;;;1.95;1.27;;;;;;;17.43;92.41;99038.72;5071402;28;20119;-77
2023/08/02 08:52:40;;;;;;;2.58;1.30;;;;;;;17.49;92.78;99044.09;5071807;28;20103;-77
2023/08/02 08:55:08;;;;;;;2.38;1.25;;;;;;;17.52;92.88;99035.00;5064582;28;20536;-77
2023/08/02 08:57:35;;;;;;;1.73;1.60;;;;;;;17.54;94.25;99039.13;5055856;28;20123;-77
2023/08/02 09:00:02;;;;;;;1.88;1.60;;;;;;;17.58;94.69;99039.25;5051332;28;20384;-77
2023/08/02 09:02:31;;;;;;;2.80;1.35;;;;;;;17.60;94.78;99039.72;5050496;28;20542;-77
2023/08/02 09:04:57;;;;;;;1.85;1.27;;;;;;;17.64;94.53;99026.66;5051119;28;20025;-77
2023/08/02 09:07:22;;;;;;;1.58;1.48;;;;;;;17.72;95.49;99008.09;5051585;28;20479;-77
2023/08/02 09:09:47;;;;;;;1.73;1.10;;;;;;;17.78;95.63;99015.16;5050581;28;20159;-77
2023/08/02 09:12:13;;;;;;;2.88;1.70;;;;;;;17.80;96.00;99008.06;5056041;28;20119;-78
2023/08/02 09:14:38;;;;;;;1.52;1.42;;;;;;;17.84;95.79;99005.34;5071114;28;20103;-77
2023/08/02 09:17:04;;;;;;;1.40;1.30;;;;;;;17.84;96.26;99000.59;5070762;28;20028;-77
2023/08/02 09:19:32;;;;;;;2.05;1.45;;;;;;;17.87;96.46;98999.88;5070675;28;20020;-77
2023/08/02 09:22:14;;;;;;;1.67;1.58;;;;;;;17.93;96.76;98989.25;5070990;28;20043;-78
2023/08/02 09:24:40;;;;;;;;;;;;;;;18.02;94.44;98981.53;5070847;28;20361;-77
2023/08/02 09:27:11;;;;;;;1.60;1.50;;;;;;;18.05;96.84;98983.66;5071047;28;19923;-77
2023/08/02 09:29:49;;;;;;;2.63;1.80;;;;;;;18.08;97.25;98982.16;5067742;28;20032;-77
2023/08/02 09:32:16;;;;;;;1.83;1.73;;;;;;;18.12;97.56;98967.06;5070159;28;20029;-78
2023/08/02 09:34:50;;;;;;;2.85;1.80;;;;;;;18.13;96.92;98974.31;5071052;28;20028;-77
2023/08/02 09:37:26;;;;;;;2.30;1.60;;;;;;;18.15;96.66;98968.31;5070339;28;20476;-77
2023/08/02 09:39:52;;;;;;;1.90;1.63;;;;;;;18.19;97.21;98974.06;5070900;28;20016;-77
2023/08/02 09:42:23;;;;;;;1.35;1.17;;;;;;;18.21;96.09;98972.56;5070782;28;20087;-78
2023/08/02 09:44:56;;;;;;;3.08;1.90;;;;;;;18.26;97.63;98971.50;5070310;28;20039;-77
2023/08/02 09:47:22;;;;;;;3.00;1.60;;;;;;;18.35;98.58;98963.78;5064347;28;20043;-77
2023/08/02 09:50:08;;;;;;;2.30;1.90;;;;;;;18.46;98.56;98967.75;5070186;28;20025;-78
2023/08/02 09:52:35;;;;;;;1.95;1.85;;;;;;;18.54;98.37;98951.94;5070164;28;20465;-77
2023/08/02 09:55:01;;;;;;;2.47;1.73;;;;;;;18.59;97.57;98948.94;5070939;28;20119;-77
2023/08/02 09:57:30;;;;;;;3.38;1.60;;;;;;;18.67;98.33;98947.13;5071165;28;20103;-77
2023/08/02 10:00:09;;;;;;;1.27;1.27;;;;;;;18.68;97.75;98945.97;5070339;28;20032;-78
2023/08/02 10:02:36;;;;;;;1.50;1.40;;;;;;;18.72;97.55;98942.13;5070821;28;20029;-77
2023/08/02 10:05:02;;;;;;;1.77;1.48;;;;;;;18.73;96.79;98949.38;5066888;28;20024;-77
2023/08/02 10:07:52;;;;;;;2.25;1.45;;;;;;;18.73;96.77;98946.56;5069773;28;20055;-78
2023/08/02 10:10:23;;;;;;;1.25;1.25;;;;;;;18.77;97.30;98946.69;5070624;28;20500;-78
2023/08/02 10:12:53;;;;;;;2.40;1.35;;;;;;;18.95;99.29;98945.25;5070150;28;20056;-78
2023/08/02 10:15:19;;;;;;;1.67;1.58;;;;;;;19.02;98.64;98942.66;5070291;28;20117;-78
2023/08/02 10:17:47;;;;;;;1.20;1.20;;;;;;;19.14;98.63;98919.31;5070590;28;20156;-78
2023/08/02 10:20:13;;;;;;;1.35;1.30;;;;;;;19.19;97.96;98919.03;5064151;28;20043;-78
2023/08/02 10:22:40;;;;;;;1.50;1.40;;;;;;;19.24;97.98;98910.34;5053597;28;20387;-78
2023/08/02 10:25:06;;;;;;;1.35;1.20;;;;;;;19.32;96.54;98905.72;5050808;28;20483;-78
2023/08/02 10:27:33;;;;;;;1.48;1.38;;;;;;;19.41;95.49;98897.13;5049769;28;20388;-78
2023/08/02 10:29:59;;;;;;;1.67;1.30;;;;;;;19.45;95.27;98898.84;5062087;28;20078;-77
2023/08/02 10:32:24;;;;;;;1.98;1.35;;;;;;;19.46;94.88;98906.13;5074038;28;20439;-78
2023/08/02 10:34:52;;;;;;;1.65;1.55;;;;;;;19.46;94.09;98894.88;5073625;28;20028;-78
2023/08/02 10:37:19;;;;;;;3.30;1.42;;;;;;;19.44;93.42;98885.16;5074122;28;20496;-78
2023/08/02 10:39:47;;;;;;;1.42;1.33;;;;;;;19.43;92.08;98883.53;5074033;28;20063;-77
2023/08/02 10:42:17;;;;;;;1.63;1.45;;;;;;;19.44;92.30;98873.91;5073561;28;20032;-77
2023/08/02 10:44:54;;;;;;;1.70;1.60;;;;;;;19.45;92.73;98867.09;5074128;28;20058;-77
2023/08/02 10:47:35;;;;;;;2.13;1.52;;;;;;;19.44;92.54;98873.91;5065978;28;20147;-78
2023/08/02 10:50:03;;;;;;;1.90;1.60;;;;;;;19.42;92.31;98879.09;5054010;28;20103;-77
2023/08/02 10:52:30;;;;;;;2.22;1.70;;;;;;;19.36;91.09;98881.31;5053564;28;20017;-78
2023/08/02 10:55:10;;;;;;;1.80;1.70;;;;;;;19.34;90.91;98889.31;5053268;28;20111;-77
2023/08/02 10:57:36;;;;;;;2.00;1.90;;;;;;;19.28;91.39;98866.25;5053593;28;20029;-78
2023/08/02 11:00:19;;;;;;;2.20;2.00;;;;;;;19.28;92.99;98854.19;5054023;28;20028;-78
2023/08/02 11:02:49;;;;;;;2.03;1.92;;;;;;;19.26;93.90;98843.31;5053125;28;20029;-78
2023/08/02 11:05:37;;;;;;;2.78;2.08;;;;;;;19.28;94.23;98843.75;5053248;28;20100;-77
2023/08/02 11:08:03;;;;;;;2.05;1.70;;;;;;;19.26;94.21;98837.69;5054902;28;20029;-78
2023/08/02 11:10:28;;;;;;;1.83;1.73;;;;;;;19.24;94.40;98854.09;5053095;28;20067;-78
2023/08/02 11:12:55;;;;;;;2.00;1.90;;;;;;;19.21;95.04;98851.97;5053569;28;20072;-78
2023/08/02 11:15:21;;;;;;;2.60;2.15;;;;;;;19.19;95.54;98857.16;5053064;28;20037;-77
2023/08/02 11:17:56;;;;;;;2.70;2.50;;;;;;;19.17;96.37;98853.06;5052700;28;20056;-78
2023/08/02 11:20:26;;;;;;;4.97;2.17;;;;;;;19.13;96.52;98855.78;5053345;28;20033;-78
2023/08/02 11:22:52;;;;;;;3.28;2.38;;;;;;;19.11;97.01;98856.16;5057229;28;20702;-78
2023/08/02 11:25:19;;;;;;;3.20;2.90;;;;;;;19.09;97.13;98869.72;5072749;28;20028;-78
2023/08/02 11:27:45;;;;;;;2.80;2.10;;;;;;;19.10;97.30;98876.19;5073348;28;20025;-78
2023/08/02 11:30:10;;;;;;;2.35;2.10;;;;;;;19.10;97.20;98862.94;5072619;28;20020;-78
2023/08/02 11:32:43;;;;;;;2.55;2.25;;;;;;;19.14;97.84;98868.69;5072779;28;20032;-78